createdAt,value
2022-08-27T00:02:24.857Z,19.17
2022-08-27T00:04:54.193Z,19.15
2022-08-27T00:07:23.153Z,19.15
2022-08-27T00:09:51.844Z,17.84
2022-08-27T00:12:20.635Z,19.19
2022-08-27T00:14:49.821Z,19.15
2022-08-27T00:17:18.971Z,19.23
2022-08-27T00:19:49.386Z,19.26
2022-08-27T00:22:18.314Z,19.23
2022-08-27T00:24:48.675Z,19.23
2022-08-27T00:27:19.120Z,19.27
2022-08-27T00:29:48.209Z,19.30
2022-08-27T00:32:17.912Z,19.32
2022-08-27T00:34:48.484Z,19.32
2022-08-27T00:37:17.687Z,19.33
2022-08-27T00:39:46.641Z,19.35
2022-08-27T00:42:18.029Z,19.35
2022-08-27T00:44:47.268Z,19.38
2022-08-27T00:47:27.349Z,19.11
2022-08-27T00:50:04.176Z,18.72
2022-08-27T00:52:37.900Z,19.61
2022-08-27T00:55:13.056Z,19.34
2022-08-27T00:57:45.139Z,19.75
2022-08-27T01:00:18.278Z,19.79
2022-08-27T01:02:48.503Z,19.81
2022-08-27T01:05:25.569Z,19.81
2022-08-27T01:07:58.985Z,19.75
2022-08-27T01:10:30.946Z,19.55
2022-08-27T01:13:02.246Z,19.63
2022-08-27T01:15:32.897Z,19.57
2022-08-27T01:18:04.176Z,19.53
2022-08-27T01:20:57.057Z,19.49
2022-08-27T01:23:37.466Z,19.48
2022-08-27T01:26:09.689Z,19.43
2022-08-27T01:28:39.241Z,19.40
2022-08-27T01:31:12.799Z,18.75
2022-08-27T01:33:42.299Z,19.33
2022-08-27T01:36:11.246Z,19.33
2022-08-27T01:38:40.299Z,19.35
2022-08-27T01:41:15.255Z,19.37
2022-08-27T01:43:53.743Z,19.37
2022-08-27T01:46:24.182Z,19.39
2022-08-27T01:48:53.648Z,19.41
2022-08-27T01:51:23.300Z,19.09
2022-08-27T01:53:53.295Z,19.38
2022-08-27T01:56:23.643Z,19.36
2022-08-27T01:58:52.523Z,19.35
2022-08-27T02:01:21.615Z,19.34
2022-08-27T02:03:50.508Z,19.34
2022-08-27T02:06:19.743Z,19.32
2022-08-27T02:08:48.708Z,19.32
2022-08-27T02:11:19.582Z,19.30
2022-08-27T02:13:49.970Z,19.28
2022-08-27T02:16:19.404Z,19.27
2022-08-27T02:18:54.458Z,19.25
2022-08-27T02:21:25.095Z,18.80
2022-08-27T02:23:55.159Z,19.21
2022-08-27T02:26:24.636Z,19.21
2022-08-27T02:28:55.036Z,19.19
2022-08-27T02:31:24.539Z,19.18
2022-08-27T02:33:53.525Z,19.16
2022-08-27T02:36:22.493Z,19.17
2022-08-27T02:38:51.696Z,19.17
2022-08-27T02:41:20.486Z,18.97
2022-08-27T02:43:49.384Z,19.17
2022-08-27T02:46:20.571Z,19.16
2022-08-27T02:48:49.779Z,19.13
2022-08-27T02:51:18.638Z,19.12
2022-08-27T02:53:48.350Z,18.93
2022-08-27T02:56:21.719Z,19.09
2022-08-27T02:58:51.146Z,19.07
2022-08-27T03:01:21.150Z,19.04
2022-08-27T03:03:50.202Z,19.00
2022-08-27T03:06:19.206Z,18.96
2022-08-27T03:08:53.003Z,18.92
2022-08-27T03:11:24.539Z,18.91
2022-08-27T03:13:54.213Z,18.90
2022-08-27T03:16:24.915Z,18.87
2022-08-27T03:18:53.170Z,18.79
2022-08-27T03:21:25.790Z,18.75
2022-08-27T03:23:55.003Z,18.68
2022-08-27T03:26:24.121Z,18.60
2022-08-27T03:28:53.098Z,18.56
2022-08-27T03:31:27.768Z,18.62
2022-08-27T03:33:59.925Z,18.69
2022-08-27T03:36:31.132Z,18.17
2022-08-27T03:39:00.514Z,18.85
2022-08-27T03:41:43.831Z,18.94
2022-08-27T03:44:21.591Z,19.02
2022-08-27T03:46:52.756Z,19.09
2022-08-27T03:49:23.398Z,19.14
2022-08-27T03:51:54.242Z,19.18
2022-08-27T03:54:23.410Z,19.20
2022-08-27T03:56:52.781Z,19.22
2022-08-27T03:59:21.688Z,19.26
2022-08-27T04:01:52.273Z,19.30
2022-08-27T04:04:21.929Z,19.36
2022-08-27T04:06:51.101Z,19.37
2022-08-27T04:09:20.170Z,19.40
2022-08-27T04:12:06.077Z,19.42
2022-08-27T04:14:42.821Z,19.44
2022-08-27T04:17:15.479Z,19.47
2022-08-27T04:19:44.419Z,19.50
2022-08-27T04:22:15.010Z,19.52
2022-08-27T04:24:45.358Z,19.51
2022-08-27T04:27:16.188Z,19.51
2022-08-27T04:29:46.822Z,19.54
2022-08-27T04:32:18.094Z,19.57
2022-08-27T04:34:47.134Z,19.60
2022-08-27T04:37:15.978Z,19.61
2022-08-27T04:39:54.416Z,19.65
2022-08-27T04:42:23.777Z,19.69
2022-08-27T04:44:53.835Z,19.69
2022-08-27T04:47:24.576Z,19.68
2022-08-27T04:49:53.626Z,19.68
2022-08-27T04:52:22.608Z,19.73
2022-08-27T04:54:52.078Z,19.74
2022-08-27T04:57:21.158Z,19.75
2022-08-27T04:59:50.871Z,19.75
2022-08-27T05:02:20.051Z,19.79
2022-08-27T05:04:53.345Z,19.85
2022-08-27T05:07:22.378Z,19.83
2022-08-27T05:09:52.279Z,19.80
2022-08-27T05:12:21.360Z,19.75
2022-08-27T05:14:50.368Z,19.79
2022-08-27T05:17:20.076Z,19.80
2022-08-27T05:19:54.124Z,19.82
2022-08-27T05:22:23.968Z,19.87
2022-08-27T05:24:54.824Z,19.82
2022-08-27T05:27:25.004Z,19.89
2022-08-27T05:29:54.784Z,19.96
2022-08-27T05:32:27.967Z,20.02
2022-08-27T05:34:58.442Z,20.09
2022-08-27T05:37:34.608Z,20.15
2022-08-27T05:40:11.770Z,20.26
2022-08-27T05:42:42.823Z,20.39
2022-08-27T05:45:18.589Z,20.50
2022-08-27T05:47:49.007Z,20.53
2022-08-27T05:50:23.470Z,20.62
2022-08-27T05:52:54.804Z,20.70
2022-08-27T05:55:24.949Z,20.54
2022-08-27T05:57:53.996Z,20.73
2022-08-27T06:00:40.016Z,20.76
2022-08-27T06:03:13.029Z,20.79
2022-08-27T06:05:43.592Z,20.80
2022-08-27T06:08:12.698Z,20.81
2022-08-27T06:10:43.133Z,20.82
2022-08-27T06:13:13.896Z,20.81
2022-08-27T06:15:43.156Z,20.79
2022-08-27T06:18:14.830Z,20.78
2022-08-27T06:20:45.339Z,20.82
2022-08-27T06:23:14.768Z,20.89
2022-08-27T06:25:45.664Z,20.89
2022-08-27T06:28:18.205Z,20.93
2022-08-27T06:30:48.535Z,21.00
2022-08-27T06:33:17.617Z,21.18
2022-08-27T06:35:49.447Z,21.39
2022-08-27T06:38:18.410Z,21.66
2022-08-27T06:40:47.002Z,21.65
2022-08-27T06:43:15.921Z,22.04
2022-08-27T06:45:44.786Z,22.10
2022-08-27T06:48:13.400Z,22.04
2022-08-27T06:50:44.663Z,21.97
2022-08-27T06:53:15.502Z,21.81
2022-08-27T06:55:45.616Z,21.99
2022-08-27T06:58:15.671Z,22.23
2022-08-27T07:00:49.132Z,22.27
2022-08-27T07:03:18.205Z,22.19
2022-08-27T07:05:55.156Z,22.16
2022-08-27T07:08:30.456Z,21.95
2022-08-27T07:10:59.548Z,21.97
2022-08-27T07:13:30.870Z,21.75
2022-08-27T07:16:00.241Z,22.32
2022-08-27T07:18:29.366Z,22.46
2022-08-27T07:20:58.067Z,22.31
2022-08-27T07:23:28.687Z,22.00
2022-08-27T07:25:57.556Z,22.62
2022-08-27T07:28:26.659Z,22.66
2022-08-27T07:30:56.458Z,22.54
2022-08-27T07:33:25.327Z,21.59
2022-08-27T07:35:55.801Z,22.20
2022-08-27T07:38:27.099Z,22.17
2022-08-27T07:40:57.524Z,22.29
2022-08-27T07:43:46.657Z,22.52
2022-08-27T07:46:15.733Z,22.86
2022-08-27T07:48:56.599Z,23.17
2022-08-27T07:51:27.854Z,23.44
2022-08-27T07:53:58.864Z,23.78
2022-08-27T07:56:34.708Z,24.03
2022-08-27T07:59:05.618Z,23.91
2022-08-27T08:01:42.079Z,23.70
2022-08-27T08:04:11.407Z,23.44
2022-08-27T08:06:46.228Z,23.25
2022-08-27T08:09:19.942Z,23.28
2022-08-27T08:11:50.405Z,23.38
2022-08-27T08:14:21.788Z,23.60
2022-08-27T08:16:51.090Z,23.95
2022-08-27T08:19:28.802Z,24.35
2022-08-27T08:22:06.201Z,24.87
2022-08-27T08:24:36.691Z,25.17
2022-08-27T08:27:07.965Z,25.42
2022-08-27T08:29:42.881Z,25.47
2022-08-27T08:32:17.677Z,25.35
2022-08-27T08:34:51.531Z,25.12
2022-08-27T08:37:22.544Z,24.99
2022-08-27T08:39:51.738Z,24.69
2022-08-27T08:42:35.919Z,23.88
2022-08-27T08:45:08.567Z,24.65
2022-08-27T08:47:49.460Z,25.14
2022-08-27T08:50:28.506Z,25.09
2022-08-27T08:53:15.472Z,25.51
2022-08-27T08:55:59.011Z,24.83
2022-08-27T08:58:42.659Z,23.37
2022-08-27T09:01:12.893Z,23.91
2022-08-27T09:03:49.009Z,24.06
2022-08-27T09:06:31.208Z,24.60
2022-08-27T09:09:20.659Z,25.10
2022-08-27T09:12:01.052Z,25.51
2022-08-27T09:14:39.943Z,25.37
2022-08-27T09:17:11.457Z,25.24
2022-08-27T09:19:41.577Z,24.65
2022-08-27T09:22:24.352Z,23.91
2022-08-27T09:25:08.531Z,23.80
2022-08-27T09:27:42.161Z,23.55
2022-08-27T09:30:20.811Z,24.06
2022-08-27T09:32:57.045Z,24.47
2022-08-27T09:35:35.912Z,24.32
2022-08-27T09:38:05.615Z,24.16
2022-08-27T09:40:40.462Z,24.05
2022-08-27T09:43:22.560Z,24.06
2022-08-27T09:45:57.886Z,23.46
2022-08-27T09:48:29.718Z,23.56
2022-08-27T10:02:24.600Z,23.50
2022-08-27T10:04:55.480Z,23.57
2022-08-27T10:07:45.047Z,23.69
2022-08-27T10:10:20.827Z,23.68
2022-08-27T10:12:55.266Z,23.59
2022-08-27T10:15:29.631Z,23.66
2022-08-27T10:18:11.357Z,23.60
2022-08-27T10:20:51.381Z,23.73
2022-08-27T10:23:30.130Z,23.90
2022-08-27T10:26:11.911Z,24.03
2022-08-27T10:28:54.223Z,24.17
2022-08-27T10:31:34.275Z,24.28
2022-08-27T10:34:17.758Z,24.51
2022-08-27T10:36:58.932Z,24.69
2022-08-27T10:39:45.544Z,24.49
2022-08-27T10:42:22.942Z,24.30
2022-08-27T10:45:03.731Z,24.11
2022-08-27T10:47:50.811Z,23.94
2022-08-27T10:50:29.737Z,24.05
2022-08-27T10:53:03.581Z,24.36
2022-08-27T10:55:34.918Z,24.29
2022-08-27T10:58:36.507Z,24.57
2022-08-27T11:01:14.143Z,25.13
2022-08-27T11:03:49.259Z,25.30
2022-08-27T11:06:26.253Z,25.23
2022-08-27T11:09:01.416Z,25.23
2022-08-27T11:12:13.885Z,25.03
2022-08-27T11:14:37.693Z,24.98
2022-08-27T11:17:17.984Z,25.08
2022-08-27T11:19:54.923Z,24.78
2022-08-27T11:22:31.024Z,24.92
2022-08-27T11:25:10.543Z,25.11
2022-08-27T11:27:41.086Z,25.14
2022-08-27T11:30:18.114Z,25.10
2022-08-27T11:32:58.471Z,25.40
2022-08-27T11:35:37.134Z,25.52
2022-08-27T11:38:25.475Z,25.54
2022-08-27T11:41:12.820Z,26.07
2022-08-27T11:43:45.791Z,26.61
2022-08-27T11:46:25.969Z,26.84
2022-08-27T11:49:03.010Z,26.63
2022-08-27T11:51:35.237Z,26.19
2022-08-27T11:54:08.339Z,25.93
2022-08-27T11:56:43.402Z,25.95
2022-08-27T11:59:22.059Z,25.87
2022-08-27T12:01:54.046Z,25.59
2022-08-27T12:04:35.322Z,25.52
2022-08-27T12:07:07.191Z,25.42
2022-08-27T12:09:58.169Z,25.34
2022-08-27T12:12:36.376Z,25.53
2022-08-27T12:15:09.877Z,25.95
2022-08-27T12:17:44.140Z,26.25
2022-08-27T12:20:25.447Z,26.60
2022-08-27T12:23:39.750Z,26.62
2022-08-27T12:26:24.334Z,26.08
2022-08-27T12:28:56.910Z,26.15
2022-08-27T12:31:26.287Z,26.04
2022-08-27T12:33:56.544Z,26.19
2022-08-27T12:36:29.466Z,26.13
2022-08-27T12:39:00.595Z,25.88
2022-08-27T12:41:43.783Z,25.87
2022-08-27T12:44:17.021Z,26.02
2022-08-27T12:46:50.073Z,25.84
2022-08-27T12:49:38.006Z,25.83
2022-08-27T12:52:21.288Z,26.32
2022-08-27T12:55:06.058Z,26.67
2022-08-27T12:57:45.151Z,26.76
2022-08-27T13:00:19.406Z,26.81
2022-08-27T13:03:24.447Z,26.99
2022-08-27T13:05:57.680Z,27.35
2022-08-27T13:08:41.787Z,27.56
2022-08-27T13:11:23.662Z,27.59
2022-08-27T13:14:05.788Z,27.44
2022-08-27T13:16:40.009Z,27.08
2022-08-27T13:19:17.602Z,26.87
2022-08-27T13:21:51.656Z,26.69
2022-08-27T13:24:39.485Z,26.83
2022-08-27T13:27:12.178Z,26.91
2022-08-27T13:29:47.651Z,26.71
2022-08-27T13:32:18.982Z,26.49
2022-08-27T13:34:48.666Z,26.15
2022-08-27T13:37:30.851Z,25.90
2022-08-27T13:40:00.350Z,25.69
2022-08-27T13:42:32.250Z,25.55
2022-08-27T13:45:08.079Z,25.46
2022-08-27T13:48:00.601Z,25.26
2022-08-27T13:50:57.951Z,24.98
2022-08-27T13:57:13.705Z,24.66
2022-08-27T14:01:25.462Z,24.52
2022-08-27T14:02:55.786Z,24.36
2022-08-27T14:05:45.648Z,23.59
2022-08-27T14:08:19.505Z,24.08
2022-08-27T14:10:52.830Z,24.04
2022-08-27T14:13:25.541Z,24.04
2022-08-27T14:15:56.266Z,24.03
2022-08-27T14:18:55.122Z,24.08
2022-08-27T14:21:19.731Z,24.09
2022-08-27T14:23:48.905Z,24.04
2022-08-27T14:26:18.536Z,23.88
2022-08-27T14:28:48.468Z,23.78
2022-08-27T14:31:18.552Z,23.75
2022-08-27T14:33:49.312Z,23.71
2022-08-27T14:36:18.823Z,23.56
2022-08-27T14:38:54.676Z,23.50
2022-08-27T14:41:26.816Z,23.44
2022-08-27T14:43:55.796Z,23.39
2022-08-27T14:46:30.856Z,23.38
2022-08-27T14:49:17.143Z,23.35
2022-08-27T14:51:47.720Z,23.34
2022-08-27T14:54:18.347Z,23.37
2022-08-27T14:56:47.471Z,23.41
2022-08-27T14:59:16.998Z,23.42
2022-08-27T15:01:46.327Z,23.38
2022-08-27T15:04:17.446Z,23.37
2022-08-27T15:06:47.310Z,23.28
2022-08-27T15:09:20.867Z,23.33
2022-08-27T15:11:50.620Z,23.39
2022-08-27T15:14:25.406Z,23.40
2022-08-27T15:17:34.056Z,23.40
2022-08-27T15:20:10.222Z,23.29
2022-08-27T15:22:48.062Z,23.27
2022-08-27T15:25:18.106Z,23.31
2022-08-27T15:27:49.744Z,23.36
2022-08-27T15:30:26.160Z,23.37
2022-08-27T15:32:56.067Z,23.40
2022-08-27T15:35:29.167Z,23.46
2022-08-27T15:37:59.566Z,23.47
2022-08-27T15:40:48.471Z,23.47
2022-08-27T15:43:18.753Z,23.48
2022-08-27T15:45:48.121Z,23.45
2022-08-27T15:48:17.248Z,23.43
2022-08-27T15:50:47.907Z,23.38
2022-08-27T15:53:26.087Z,23.32
2022-08-27T15:55:56.625Z,23.34
2022-08-27T15:58:29.100Z,23.35
2022-08-27T16:01:06.923Z,23.31
2022-08-27T16:03:41.939Z,23.26
2022-08-27T16:06:17.503Z,23.24
2022-08-27T16:08:48.356Z,23.25
2022-08-27T16:11:17.691Z,23.24
2022-08-27T16:13:46.977Z,23.21
2022-08-27T16:16:16.666Z,23.15
2022-08-27T16:18:46.345Z,23.07
2022-08-27T16:21:17.318Z,23.01
2022-08-27T16:23:46.915Z,23.00
2022-08-27T16:26:16.844Z,23.00
2022-08-27T17:44:29.805Z,21.89
2022-08-27T17:47:04.067Z,21.93
2022-08-27T17:49:33.283Z,21.84
2022-08-27T17:52:06.356Z,21.79
2022-08-27T17:54:39.286Z,21.73
2022-08-27T17:57:17.831Z,21.69
2022-08-27T17:59:48.456Z,21.63
2022-08-27T18:02:26.112Z,21.59
2022-08-27T18:04:55.287Z,21.56
2022-08-27T18:07:24.336Z,21.49
2022-08-27T18:09:54.591Z,21.46
2022-08-27T18:12:27.573Z,21.31
2022-08-27T18:15:06.911Z,21.33
2022-08-27T18:17:36.946Z,21.31
2022-08-27T18:20:07.214Z,21.25
2022-08-27T18:22:43.363Z,21.22
2022-08-27T18:25:20.439Z,21.18
2022-08-27T18:27:53.327Z,21.15
2022-08-27T18:30:25.095Z,21.14
2022-08-27T18:32:54.808Z,21.11
2022-08-27T18:35:26.910Z,21.10
2022-08-27T18:37:56.245Z,21.04
2022-08-27T18:40:31.754Z,21.01
2022-08-27T18:43:03.167Z,20.99
2022-08-27T18:45:39.746Z,20.97
2022-08-27T18:48:14.499Z,20.96
2022-08-27T18:50:46.829Z,20.91
2022-08-27T18:53:19.916Z,20.88
2022-08-27T18:55:49.265Z,20.83
2022-08-27T18:58:18.488Z,20.86
2022-08-27T19:00:52.344Z,20.93
2022-08-27T19:03:28.758Z,20.98
2022-08-27T19:05:58.367Z,20.97
2022-08-27T19:08:30.006Z,20.95
2022-08-27T19:10:59.274Z,20.93
2022-08-27T19:13:28.503Z,20.92
2022-08-27T19:16:01.991Z,20.89
2022-08-27T19:18:33.575Z,20.85
2022-08-27T19:21:02.912Z,20.82
2022-08-27T19:23:32.623Z,20.82
2022-08-27T19:26:04.017Z,20.82
2022-08-27T19:28:39.681Z,20.85
2022-08-27T19:31:10.367Z,20.88
2022-08-27T19:33:39.512Z,20.96
2022-08-27T19:36:14.990Z,20.98
2022-08-27T19:38:45.838Z,20.98
2022-08-27T19:41:15.064Z,21.01
2022-08-27T19:43:44.755Z,21.07
2022-08-27T19:46:19.844Z,21.04
2022-08-27T19:48:49.366Z,21.02
2022-08-27T19:51:19.056Z,21.00
2022-08-27T19:53:51.264Z,21.00
2022-08-27T19:56:20.343Z,21.00
2022-08-27T19:58:52.000Z,20.97
2022-08-27T20:01:24.597Z,21.01
2022-08-27T20:03:54.107Z,21.01
2022-08-27T20:06:28.497Z,21.00
2022-08-27T20:08:57.379Z,21.00
2022-08-27T20:11:26.409Z,21.01
2022-08-27T20:14:01.808Z,21.02
2022-08-27T20:16:32.160Z,21.03
2022-08-27T20:19:02.658Z,21.02
2022-08-27T20:21:31.953Z,21.02
2022-08-27T20:24:00.971Z,21.03
2022-08-27T20:26:39.676Z,21.03
2022-08-27T20:29:08.840Z,21.02
2022-08-27T20:31:39.456Z,21.03
2022-08-27T20:34:08.694Z,21.03
2022-08-27T20:36:38.013Z,21.05
2022-08-27T20:39:07.596Z,21.05
2022-08-27T20:41:36.728Z,21.05
2022-08-27T20:44:05.941Z,21.06
2022-08-27T20:46:36.087Z,21.05
2022-08-27T20:49:08.777Z,21.04
2022-08-27T20:51:51.175Z,21.03
2022-08-27T20:54:34.915Z,21.00
2022-08-27T20:57:08.427Z,20.95
2022-08-27T20:59:59.921Z,20.88
2022-08-27T21:02:31.087Z,20.85
2022-08-27T21:05:09.212Z,20.81
2022-08-27T21:07:38.342Z,20.70
2022-08-27T21:10:08.479Z,20.43
2022-08-27T21:12:37.563Z,20.28
2022-08-27T21:15:08.871Z,20.21
2022-08-27T21:17:38.363Z,20.13
2022-08-27T21:20:11.000Z,20.02
2022-08-27T21:22:40.543Z,20.00
2022-08-27T21:25:11.024Z,19.99
2022-08-27T21:27:40.820Z,19.92
2022-08-27T21:30:12.024Z,19.90
2022-08-27T21:32:41.015Z,19.93
2022-08-27T21:35:11.986Z,19.92
2022-08-27T21:37:41.930Z,19.91
2022-08-27T21:40:11.857Z,19.88
2022-08-27T21:42:40.961Z,19.87
2022-08-27T21:45:10.241Z,19.91
2022-08-27T21:47:39.238Z,19.92
2022-08-27T21:50:11.448Z,19.92
2022-08-27T21:52:40.403Z,19.96
2022-08-27T21:55:10.395Z,19.98
2022-08-27T21:57:39.335Z,20.01
2022-08-27T22:00:17.757Z,20.03
2022-08-27T22:02:46.766Z,20.03
2022-08-27T22:05:17.144Z,20.01
2022-08-27T22:07:46.133Z,20.06
2022-08-27T22:10:15.691Z,20.03
2022-08-27T22:12:44.596Z,20.03
2022-08-27T22:15:13.799Z,20.02
2022-08-27T22:17:42.752Z,19.99
2022-08-27T22:20:12.342Z,20.02
2022-08-27T22:22:42.719Z,20.00
2022-08-27T22:25:11.961Z,20.00
2022-08-27T22:27:40.952Z,19.98
2022-08-27T22:30:11.538Z,20.00
2022-08-27T22:32:41.548Z,20.00
2022-08-27T22:35:12.014Z,20.01
2022-08-27T22:37:42.692Z,20.03
2022-08-27T22:40:19.319Z,19.98
2022-08-27T22:42:48.931Z,20.01
2022-08-27T22:45:19.254Z,19.96
2022-08-27T22:47:48.505Z,20.02
2022-08-27T22:50:17.902Z,20.03
2022-08-27T22:52:50.317Z,19.99
2022-08-27T22:55:22.159Z,19.95
2022-08-27T22:57:53.730Z,20.00
2022-08-27T23:00:25.173Z,19.92
2022-08-27T23:02:54.342Z,19.89
2022-08-27T23:05:24.555Z,19.87
2022-08-27T23:07:56.648Z,19.87
2022-08-27T23:10:27.550Z,19.80
2022-08-27T23:12:57.547Z,19.83
2022-08-27T23:15:29.679Z,19.01
2022-08-27T23:17:58.821Z,19.81
2022-08-27T23:20:28.813Z,19.79
2022-08-27T23:22:59.794Z,19.78
2022-08-27T23:25:46.857Z,19.83
2022-08-27T23:28:16.222Z,19.44
2022-08-27T23:30:46.366Z,19.77
2022-08-27T23:33:15.788Z,19.73
2022-08-27T23:35:48.181Z,19.78
2022-08-27T23:38:20.079Z,19.68
2022-08-27T23:40:50.188Z,19.68
2022-08-27T23:43:19.671Z,19.68
2022-08-27T23:45:50.406Z,19.69
2022-08-27T23:48:19.777Z,19.64
2022-08-27T23:50:48.877Z,19.67
2022-08-27T23:53:19.147Z,19.63
2022-08-27T23:55:48.388Z,19.54
2022-08-27T23:58:17.310Z,19.53
